Time;durP1;ratioP1;P1;durP2;ratioP2;P2;SDS_P1;SDS_P2;PMS_P1;PMS_P2;Temp;Humidity;BMP_temperature;BMP_pressure;BME280_temperature;BME280_humidity;BME280_pressure;Samples;Min_cycle;Max_cycle;Signal;HPM_P1;HPM_P2
2022/08/17 00:00:59;;;;;;;40.53;36.95;;;19.70;99.90;;;;;;5113237;27;20871;-80
2022/08/17 00:03:31;;;;;;;40.08;36.63;;;19.60;99.90;;;;;;5097039;27;20051;-80
2022/08/17 00:06:06;;;;;;;39.65;36.13;;;19.60;99.90;;;;;;5116975;27;20031;-80
2022/08/17 00:08:38;;;;;;;40.92;36.95;;;19.50;99.90;;;;;;5122333;27;20493;-80
2022/08/17 00:11:08;;;;;;;40.42;36.80;;;19.40;99.90;;;;;;5098192;27;20047;-80
2022/08/17 00:13:38;;;;;;;42.90;39.03;;;19.40;99.90;;;;;;5105587;27;20066;-80
2022/08/17 00:16:08;;;;;;;38.63;35.42;;;19.30;99.90;;;;;;5095994;27;20680;-80
2022/08/17 00:18:34;;;;;;;41.17;37.25;;;19.30;99.90;;;;;;5120668;27;20094;-80
2022/08/17 00:21:02;;;;;;;43.53;39.30;;;19.30;99.90;;;;;;5101085;27;20135;-80
2022/08/17 00:23:27;;;;;;;42.13;38.30;;;19.30;99.90;;;;;;5111750;27;20498;-80
2022/08/17 00:25:54;;;;;;;42.78;38.90;;;19.30;99.90;;;;;;5078291;27;20085;-80
2022/08/17 00:28:20;;;;;;;44.17;40.08;;;19.30;99.90;;;;;;5104249;27;20051;-80
2022/08/17 00:30:49;;;;;;;38.55;35.03;;;19.30;99.90;;;;;;5094144;27;20244;-80
2022/08/17 00:33:21;;;;;;;41.08;37.25;;;19.30;99.90;;;;;;5096928;27;20059;-80
2022/08/17 00:35:48;;;;;;;39.15;35.72;;;19.30;99.90;;;;;;5090014;28;20043;-80
2022/08/17 00:38:14;;;;;;;34.10;31.30;;;19.40;99.90;;;;;;5099044;27;20095;-80
2022/08/17 00:40:44;;;;;;;37.17;33.88;;;19.40;99.90;;;;;;5091400;27;20048;-80
2022/08/17 00:43:14;;;;;;;39.85;36.25;;;19.40;99.90;;;;;;5115060;27;20096;-81
2022/08/17 00:45:41;;;;;;;43.38;39.28;;;19.40;99.90;;;;;;5106319;27;20402;-80
2022/08/17 00:48:07;;;;;;;44.97;40.58;;;19.40;99.90;;;;;;5095571;27;20044;-80
2022/08/17 00:50:34;;;;;;;52.75;45.40;;;19.30;99.90;;;;;;5089941;27;20550;-80
2022/08/17 00:53:00;;;;;;;54.90;45.40;;;19.30;99.90;;;;;;5116361;27;20054;-79
2022/08/17 00:55:26;;;;;;;47.33;42.80;;;19.20;99.90;;;;;;5088564;27;20131;-80
2022/08/17 00:57:57;;;;;;;87.55;49.15;;;19.10;99.90;;;;;;5093092;27;20062;-82
2022/08/17 01:00:31;;;;;;;47.47;42.75;;;19.00;99.90;;;;;;5116133;27;20075;-80
2022/08/17 01:03:02;;;;;;;115.05;46.95;;;18.90;99.90;;;;;;5099846;27;20043;-80
2022/08/17 01:05:31;;;;;;;53.00;43.92;;;18.80;99.90;;;;;;5115391;27;20043;-80
2022/08/17 01:07:58;;;;;;;56.13;45.83;;;18.70;99.90;;;;;;5116291;27;20512;-80
2022/08/17 01:10:52;;;;;;;62.42;45.33;;;18.70;99.90;;;;;;5116301;27;20369;-79
2022/08/17 01:13:20;;;;;;;71.03;43.60;;;18.60;99.90;;;;;;5096772;27;20052;-80
2022/08/17 01:16:00;;;;;;;77.38;48.50;;;18.50;99.90;;;;;;5109511;27;20043;-80
2022/08/17 01:18:30;;;;;;;47.47;42.90;;;18.50;99.90;;;;;;5093457;27;20054;-80
2022/08/17 01:20:57;;;;;;;;;;;18.40;99.90;;;;;;5098135;27;20182;-80
2022/08/17 01:23:24;;;;;;;47.72;42.78;;;18.40;99.90;;;;;;5097721;27;19958;-80
2022/08/17 01:25:53;;;;;;;53.20;43.75;;;18.40;99.90;;;;;;5096729;27;20486;-80
2022/08/17 01:28:20;;;;;;;76.03;45.10;;;18.40;99.90;;;;;;5095187;27;20043;-80
2022/08/17 01:30:47;;;;;;;71.38;49.33;;;18.40;99.90;;;;;;5112251;27;20626;-80
2022/08/17 01:33:13;;;;;;;45.42;41.58;;;18.40;99.90;;;;;;5081956;28;20565;-80
2022/08/17 01:35:40;;;;;;;50.03;45.40;;;18.40;99.90;;;;;;5078854;28;20126;-80
2022/08/17 01:38:08;;;;;;;44.38;40.60;;;18.50;99.90;;;;;;5051519;28;20180;-80
2022/08/17 01:40:48;;;;;;;41.20;37.97;;;18.50;99.90;;;;;;5091532;27;20610;-80
2022/08/17 01:43:25;;;;;;;;;;;18.60;99.90;;;;;;5078133;28;20131;-81
2022/08/17 01:45:54;;;;;;;41.80;38.20;;;18.50;99.90;;;;;;5085858;27;20106;-80
2022/08/17 01:48:21;;;;;;;44.88;41.00;;;18.60;99.90;;;;;;5079885;28;20040;-80
2022/08/17 01:50:50;;;;;;;48.40;44.10;;;18.60;99.90;;;;;;5068282;28;20040;-80
2022/08/17 01:53:31;;;;;;;48.05;43.47;;;18.50;99.90;;;;;;5067354;27;20127;-80
2022/08/17 01:56:08;;;;;;;48.03;43.55;;;18.50;99.90;;;;;;5066926;28;20126;-81
2022/08/17 01:58:34;;;;;;;51.85;46.92;;;18.50;99.90;;;;;;5087424;28;20101;-80
2022/08/17 02:01:01;;;;;;;69.03;56.15;;;18.40;99.90;;;;;;5095250;28;20051;-82
2022/08/17 02:03:29;;;;;;;65.43;55.42;;;18.30;99.90;;;;;;5081400;28;20089;-82
2022/08/17 02:05:55;;;;;;;64.22;53.80;;;18.30;99.90;;;;;;5071179;28;20165;-82
2022/08/17 02:08:22;;;;;;;81.13;59.72;;;18.30;99.90;;;;;;5069196;28;20044;-82
2022/08/17 02:10:50;;;;;;;57.40;51.30;;;18.30;99.90;;;;;;5070029;28;20453;-80
2022/08/17 02:13:18;;;;;;;58.17;52.45;;;18.20;99.90;;;;;;5079040;28;20083;-80
2022/08/17 02:15:44;;;;;;;55.65;50.22;;;18.20;99.90;;;;;;5079361;28;20043;-80
2022/08/17 02:18:11;;;;;;;54.30;49.13;;;18.20;99.90;;;;;;5064499;28;20078;-80
2022/08/17 02:20:39;;;;;;;54.47;48.70;;;18.20;99.90;;;;;;5065324;28;20068;-80
2022/08/17 02:23:09;;;;;;;63.30;51.03;;;18.30;99.90;;;;;;5068647;28;20063;-80
2022/08/17 02:25:42;;;;;;;50.47;45.78;;;18.20;99.90;;;;;;5070696;28;20031;-80
2022/08/17 02:28:08;;;;;;;50.95;46.35;;;18.20;99.90;;;;;;5095703;28;20063;-80
2022/08/17 02:30:37;;;;;;;55.13;48.92;;;18.20;99.90;;;;;;5080405;28;20137;-80
2022/08/17 02:33:03;;;;;;;50.38;45.53;;;18.20;99.90;;;;;;5086829;27;20068;-80
2022/08/17 02:35:29;;;;;;;52.85;47.30;;;18.20;99.90;;;;;;5071269;27;20690;-80
2022/08/17 02:37:55;;;;;;;52.15;47.13;;;18.10;99.90;;;;;;5069303;27;20929;-80
2022/08/17 02:40:23;;;;;;;54.60;47.90;;;18.10;99.90;;;;;;5087003;27;20035;-80
2022/08/17 02:42:49;;;;;;;51.30;46.38;;;18.10;99.90;;;;;;5103258;27;20482;-80
2022/08/17 02:45:18;;;;;;;58.47;52.35;;;18.10;99.90;;;;;;5104898;27;20101;-80
2022/08/17 02:47:44;;;;;;;50.03;45.55;;;18.10;99.90;;;;;;5121668;27;20503;-80
2022/08/17 02:50:12;;;;;;;55.22;49.67;;;18.00;99.90;;;;;;5119801;27;20105;-80
2022/08/17 02:52:41;;;;;;;55.15;50.33;;;18.00;99.90;;;;;;5099057;27;20047;-82
2022/08/17 02:55:11;;;;;;;49.10;44.95;;;18.00;99.90;;;;;;5118516;27;20039;-83
2022/08/17 02:57:38;;;;;;;50.35;45.75;;;18.00;99.90;;;;;;5092798;27;20054;-83
2022/08/17 03:00:08;;;;;;;50.42;45.90;;;18.00;99.90;;;;;;5085600;27;20047;-83
2022/08/17 03:02:39;;;;;;;51.45;46.75;;;18.00;99.90;;;;;;5104013;27;20047;-79
2022/08/17 03:05:10;;;;;;;50.65;46.08;;;17.90;99.90;;;;;;5101369;27;20517;-80
2022/08/17 03:07:37;;;;;;;52.22;47.63;;;17.90;99.90;;;;;;5100615;27;20051;-80
2022/08/17 03:10:10;;;;;;;52.58;47.97;;;17.90;99.90;;;;;;5070175;27;20138;-83
2022/08/17 03:12:46;;;;;;;50.20;45.65;;;17.90;99.90;;;;;;5117688;27;20493;-83
2022/08/17 03:15:19;;;;;;;49.83;45.53;;;18.00;99.90;;;;;;5096337;27;20055;-80
2022/08/17 03:17:48;;;;;;;51.33;46.53;;;18.00;99.90;;;;;;5098128;27;20082;-80
2022/08/17 03:20:17;;;;;;;51.80;46.97;;;18.00;99.90;;;;;;5101839;27;20745;-80
2022/08/17 03:22:46;;;;;;;49.33;44.92;;;18.00;99.90;;;;;;5114428;27;20038;-80
2022/08/17 03:25:20;;;;;;;50.15;45.75;;;18.00;99.90;;;;;;5100532;27;20051;-80
2022/08/17 03:27:46;;;;;;;48.13;43.90;;;18.00;99.90;;;;;;5099360;27;20393;-81
2022/08/17 03:30:13;;;;;;;49.97;45.65;;;18.00;99.90;;;;;;5078453;27;20047;-81
2022/08/17 03:32:41;;;;;;;47.00;42.90;;;18.00;99.90;;;;;;5088589;27;20061;-80
2022/08/17 03:35:08;;;;;;;51.63;47.00;;;18.00;99.90;;;;;;5114889;27;20061;-83
2022/08/17 03:37:38;;;;;;;44.58;40.90;;;18.00;99.90;;;;;;5096439;27;20107;-84
2022/08/17 03:40:06;;;;;;;61.78;55.05;;;18.00;99.90;;;;;;5081355;27;20039;-84
2022/08/17 03:42:34;;;;;;;60.25;53.90;;;18.00;99.90;;;;;;5100390;27;20110;-83
2022/08/17 03:45:02;;;;;;;43.67;40.08;;;18.00;99.90;;;;;;5084274;27;20046;-84
2022/08/17 03:58:20;;;;;;;49.45;45.00;;;18.00;99.90;;;;;;5114928;27;20047;-81
2022/08/17 04:00:47;;;;;;;45.83;41.97;;;18.00;99.90;;;;;;5078753;27;20498;-84
2022/08/17 04:03:13;;;;;;;52.10;47.35;;;18.00;99.90;;;;;;5089414;27;20070;-84
2022/08/17 04:05:39;;;;;;;49.15;44.78;;;18.00;99.90;;;;;;5100555;27;20103;-84
2022/08/17 04:08:06;;;;;;;46.28;42.28;;;18.00;99.90;;;;;;5084774;27;20678;-85
2022/08/17 04:10:32;;;;;;;48.65;44.30;;;18.00;99.90;;;;;;5083774;27;20047;-83
2022/08/17 04:12:59;;;;;;;48.45;44.13;;;17.90;99.90;;;;;;5103871;27;20096;-84
2022/08/17 04:15:25;;;;;;;46.75;42.83;;;17.90;99.90;;;;;;5099132;27;20097;-85
2022/08/17 04:17:51;;;;;;;73.15;57.85;;;17.90;99.90;;;;;;5087390;27;20043;-84
2022/08/17 04:20:19;;;;;;;54.97;49.67;;;18.00;99.90;;;;;;5099206;27;20040;-84
2022/08/17 04:23:00;;;;;;;46.15;42.25;;;18.00;99.90;;;;;;5087237;27;20125;-84
2022/08/17 04:25:31;;;;;;;47.53;43.38;;;18.00;99.90;;;;;;5108699;27;20047;-85
2022/08/17 04:27:59;;;;;;;49.05;44.45;;;18.00;99.90;;;;;;5075410;27;20043;-84
2022/08/17 04:30:26;;;;;;;51.00;46.15;;;18.00;99.90;;;;;;5100879;27;20126;-84
2022/08/17 04:33:07;;;;;;;52.10;47.20;;;18.00;99.90;;;;;;5070034;27;20239;-84
2022/08/17 04:35:46;;;;;;;48.95;44.55;;;18.00;99.90;;;;;;5114952;27;20038;-80
2022/08/17 04:38:15;;;;;;;55.53;50.10;;;18.00;99.90;;;;;;5120242;27;20073;-80
2022/08/17 04:43:28;;;;;;;52.25;47.55;;;18.00;99.90;;;;;;5098850;27;20165;-85
2022/08/17 04:46:05;;;;;;;54.58;49.28;;;17.90;99.90;;;;;;5120012;27;20077;-84
2022/08/17 04:48:42;;;;;;;55.38;49.92;;;18.00;99.90;;;;;;5106515;27;20166;-85
2022/08/17 04:51:12;;;;;;;55.42;49.90;;;18.00;99.90;;;;;;5095499;27;20497;-85
2022/08/17 04:53:43;;;;;;;52.25;47.28;;;17.90;99.90;;;;;;5100088;27;20038;-84
2022/08/17 04:56:11;;;;;;;60.97;55.00;;;18.00;99.90;;;;;;5104559;27;20118;-85
2022/08/17 04:58:37;;;;;;;58.45;52.75;;;18.00;99.90;;;;;;5088230;27;20047;-84
2022/08/17 05:01:04;;;;;;;65.53;59.05;;;17.90;99.90;;;;;;5086633;27;20043;-85
2022/08/17 05:03:32;;;;;;;60.97;54.90;;;17.90;99.90;;;;;;5121984;27;20660;-85
2022/08/17 05:05:58;;;;;;;63.47;57.17;;;17.90;99.90;;;;;;5102989;27;20042;-85
2022/08/17 05:08:24;;;;;;;62.20;55.85;;;17.90;99.90;;;;;;5119717;27;20039;-86
2022/08/17 05:10:50;;;;;;;65.63;58.63;;;17.90;99.90;;;;;;5068973;27;20027;-86
2022/08/17 05:13:20;;;;;;;61.38;55.15;;;17.90;99.90;;;;;;5102147;27;20060;-86
2022/08/17 05:15:48;;;;;;;61.97;55.85;;;17.90;99.90;;;;;;5103682;27;20046;-87
2022/08/17 05:18:15;;;;;;;58.70;52.92;;;17.90;99.90;;;;;;5102751;27;20318;-87
2022/08/17 05:20:41;;;;;;;65.43;58.35;;;17.90;99.90;;;;;;5105290;27;20572;-81
2022/08/17 05:23:10;;;;;;;64.55;57.80;;;17.80;99.90;;;;;;5099345;27;20481;-84
2022/08/17 05:25:41;;;;;;;65.82;59.00;;;17.90;99.90;;;;;;5103589;27;20050;-84
2022/08/17 05:28:09;;;;;;;65.80;59.03;;;17.90;99.90;;;;;;5117502;27;20609;-85
2022/08/17 05:30:40;;;;;;;71.88;63.60;;;17.90;99.90;;;;;;5102140;27;20039;-84
2022/08/17 05:33:18;;;;;;;64.60;57.83;;;17.90;99.90;;;;;;5084864;27;20691;-84
2022/08/17 05:35:47;;;;;;;68.05;60.92;;;18.00;99.90;;;;;;5099410;27;20046;-90
2022/08/17 05:38:26;;;;;;;66.60;59.70;;;18.00;99.90;;;;;;5102112;27;20130;-83
2022/08/17 05:40:55;;;;;;;69.20;61.78;;;18.10;99.90;;;;;;5080614;27;20045;-82
2022/08/17 05:43:54;;;;;;;66.85;60.20;;;18.10;99.90;;;;;;5082544;27;20050;-83
2022/08/17 05:46:26;;;;;;;72.28;64.53;;;18.10;99.90;;;;;;5117211;27;20532;-84
2022/08/17 05:49:25;;;;;;;91.93;72.65;;;18.20;99.90;;;;;;5110875;27;20485;-85
2022/08/17 05:52:22;;;;;;;81.00;67.07;;;18.20;99.90;;;;;;5100881;27;20058;-83
2022/08/17 05:55:22;;;;;;;72.22;63.17;;;18.30;99.90;;;;;;5097047;27;20047;-82
2022/08/17 05:57:50;;;;;;;78.85;67.55;;;18.30;99.90;;;;;;5116570;27;20049;-82
2022/08/17 06:00:49;;;;;;;70.50;63.00;;;18.30;99.90;;;;;;5098028;27;20043;-82
2022/08/17 06:03:39;;;;;;;78.82;67.18;;;18.30;99.90;;;;;;5111016;27;20106;-83
2022/08/17 06:06:30;;;;;;;70.85;63.08;;;18.30;99.90;;;;;;5099258;27;20053;-83
2022/08/17 06:09:04;;;;;;;77.85;65.40;;;18.30;99.90;;;;;;5119364;27;20151;-83
2022/08/17 06:11:42;;;;;;;74.25;66.05;;;18.30;99.90;;;;;;5100518;27;20103;-82
2022/08/17 06:14:57;;;;;;;72.03;63.88;;;18.30;99.90;;;;;;5099161;27;20693;-82
2022/08/17 06:17:25;;;;;;;75.45;67.28;;;18.30;99.90;;;;;;5050106;27;20111;-88
2022/08/17 06:19:58;;;;;;;71.15;63.70;;;18.40;99.90;;;;;;5099192;27;20039;-88
2022/08/17 06:22:35;;;;;;;74.63;66.53;;;18.50;99.90;;;;;;5118059;27;20129;-84
2022/08/17 06:25:11;;;;;;;92.80;75.53;;;18.50;99.90;;;;;;5098754;27;20055;-85
2022/08/17 06:27:57;;;;;;;79.63;69.65;;;18.60;99.90;;;;;;5100512;27;20039;-87
2022/08/17 06:30:29;;;;;;;70.93;63.63;;;18.70;99.90;;;;;;5095647;27;20287;-89
2022/08/17 06:33:01;;;;;;;74.85;66.50;;;18.70;99.90;;;;;;5105057;27;20043;-89
2022/08/17 06:35:41;;;;;;;77.75;68.97;;;18.70;99.90;;;;;;5103410;27;20503;-88
2022/08/17 06:38:40;;;;;;;75.35;67.32;;;18.80;99.90;;;;;;5122419;27;20094;-87
2022/08/17 06:41:16;;;;;;;71.43;63.43;;;18.80;99.90;;;;;;5108154;27;20061;-86
2022/08/17 06:44:05;;;;;;;83.47;69.88;;;18.90;99.90;;;;;;5104214;27;20038;-88
2022/08/17 06:46:38;;;;;;;128.00;85.22;;;18.90;99.90;;;;;;5095968;27;20047;-85
2022/08/17 06:49:29;;;;;;;98.40;77.75;;;18.90;99.90;;;;;;5101282;27;20035;-86
2022/08/17 06:52:22;;;;;;;121.72;82.43;;;18.90;99.90;;;;;;5102422;27;20621;-86
2022/08/17 06:55:10;;;;;;;70.78;63.13;;;19.00;99.90;;;;;;5096294;27;20035;-87
2022/08/17 06:57:40;;;;;;;76.47;67.93;;;19.10;99.90;;;;;;5102825;27;20050;-87
2022/08/17 07:00:19;;;;;;;81.10;70.68;;;19.10;99.90;;;;;;5102863;27;20039;-87
2022/08/17 07:03:07;;;;;;;81.00;72.13;;;19.20;99.90;;;;;;5105495;27;20043;-87
2022/08/17 07:05:46;;;;;;;82.97;73.03;;;19.30;99.90;;;;;;5121443;27;20106;-84
2022/08/17 07:08:32;;;;;;;;;;;19.30;99.90;;;;;;5114699;27;20042;-87
2022/08/17 07:11:06;;;;;;;69.32;62.05;;;19.30;99.90;;;;;;5101901;27;20003;-88
2022/08/17 07:14:11;;;;;;;80.03;71.32;;;19.30;99.90;;;;;;5109165;27;20035;-89
2022/08/17 07:16:45;;;;;;;73.43;65.60;;;19.40;99.90;;;;;;5076340;27;20543;-88
2022/08/17 07:19:15;;;;;;;79.45;70.75;;;19.50;99.90;;;;;;5105502;27;20061;-88
2022/08/17 07:21:57;;;;;;;79.93;70.97;;;19.50;99.90;;;;;;5105387;27;20630;-89
2022/08/17 07:24:29;;;;;;;85.63;73.43;;;19.50;99.90;;;;;;5122977;27;20117;-87
2022/08/17 07:27:06;;;;;;;73.57;65.75;;;19.60;99.90;;;;;;5104873;27;20535;-88
2022/08/17 07:29:37;;;;;;;75.85;67.65;;;19.60;99.90;;;;;;5104156;27;20058;-87
2022/08/17 07:32:03;;;;;;;78.47;70.03;;;19.70;99.90;;;;;;5105140;27;20041;-87
2022/08/17 07:34:29;;;;;;;80.90;72.20;;;19.70;99.90;;;;;;5107471;27;20038;-87
2022/08/17 07:37:04;;;;;;;71.20;63.85;;;19.70;99.90;;;;;;5097051;27;20038;-87
2022/08/17 07:39:33;;;;;;;78.60;70.18;;;19.70;99.90;;;;;;5105260;27;20034;-86
2022/08/17 07:42:03;;;;;;;74.28;66.57;;;19.80;99.90;;;;;;5076206;27;20050;-85
2022/08/17 07:44:29;;;;;;;70.25;63.15;;;19.90;99.90;;;;;;5120018;27;20097;-86
2022/08/17 07:49:45;;;;;;;77.28;68.97;;;20.00;99.90;;;;;;5121919;27;20494;-85
2022/08/17 07:52:33;;;;;;;74.22;66.47;;;20.10;99.90;;;;;;5101525;27;20046;-84
2022/08/17 07:55:05;;;;;;;67.32;60.67;;;20.20;99.90;;;;;;5086552;27;20156;-86
2022/08/17 07:57:34;;;;;;;64.32;57.92;;;20.20;99.90;;;;;;5103823;27;20671;-81
2022/08/17 08:00:00;;;;;;;64.63;58.10;;;20.30;99.90;;;;;;5120497;27;20917;-81
2022/08/17 08:02:40;;;;;;;63.25;57.17;;;20.30;99.90;;;;;;5115393;27;20133;-81
2022/08/17 08:05:12;;;;;;;68.60;61.50;;;20.40;99.90;;;;;;5100037;27;20038;-81
2022/08/17 08:08:00;;;;;;;60.40;54.58;;;20.40;99.90;;;;;;5104630;27;20567;-81
2022/08/17 08:10:31;;;;;;;69.47;62.45;;;20.50;99.90;;;;;;5105757;27;20442;-85
2022/08/17 08:13:23;;;;;;;67.60;60.95;;;20.50;99.90;;;;;;5104911;27;20050;-81
2022/08/17 08:15:52;;;;;;;66.90;60.05;;;20.50;99.90;;;;;;5122052;27;20140;-80
2022/08/17 08:18:23;;;;;;;66.35;59.92;;;20.60;99.90;;;;;;5105758;27;20076;-80
2022/08/17 08:21:00;;;;;;;63.70;57.50;;;20.60;99.90;;;;;;5097796;27;20042;-80
2022/08/17 08:23:57;;;;;;;63.40;56.97;;;20.60;99.90;;;;;;5103895;27;20081;-83
2022/08/17 08:26:41;;;;;;;66.10;59.13;;;20.60;99.90;;;;;;5118524;27;20046;-83
2022/08/17 08:29:30;;;;;;;65.28;58.58;;;20.60;99.90;;;;;;5105098;27;20428;-82
2022/08/17 08:31:58;;;;;;;61.28;55.03;;;20.70;99.90;;;;;;5102606;27;20253;-86
2022/08/17 08:34:52;;;;;;;57.63;52.03;;;20.80;99.90;;;;;;5106787;27;20070;-84
2022/08/17 08:37:23;;;;;;;58.28;52.40;;;20.90;99.90;;;;;;5105947;27;20066;-83
2022/08/17 08:40:01;;;;;;;58.30;52.25;;;21.00;99.90;;;;;;5102662;27;20951;-82
2022/08/17 08:42:43;;;;;;;55.78;49.85;;;21.10;99.90;;;;;;5104556;27;20524;-82
2022/08/17 08:45:12;;;;;;;54.40;48.40;;;21.10;99.90;;;;;;5105366;27;20042;-80
2022/08/17 08:48:04;;;;;;;56.42;49.83;;;21.10;99.90;;;;;;5121412;27;20065;-80
2022/08/17 08:50:39;;;;;;;55.03;49.58;;;21.20;99.90;;;;;;5103489;27;20077;-80
2022/08/17 08:53:30;;;;;;;54.63;49.28;;;21.20;99.90;;;;;;5120452;27;20054;-80
2022/08/17 08:55:58;;;;;;;53.50;48.30;;;21.30;99.90;;;;;;5114768;27;20549;-80
2022/08/17 08:59:09;;;;;;;49.80;45.22;;;21.40;99.90;;;;;;5116466;27;20046;-81
2022/08/17 09:01:51;;;;;;;52.88;47.75;;;21.50;99.90;;;;;;5088410;27;20095;-81
2022/08/17 09:04:23;;;;;;;47.55;43.35;;;21.70;99.90;;;;;;5101096;27;20145;-81
2022/08/17 09:07:01;;;;;;;50.15;45.58;;;21.90;99.90;;;;;;5122656;27;20062;-80
2022/08/17 09:09:51;;;;;;;51.10;46.17;;;22.10;99.90;;;;;;5101145;27;20043;-80
2022/08/17 09:12:24;;;;;;;47.03;42.50;;;22.00;99.90;;;;;;5122448;27;20039;-79
2022/08/17 09:14:50;;;;;;;47.58;43.13;;;22.00;99.90;;;;;;5103318;27;20038;-81
2022/08/17 09:17:52;;;;;;;45.83;41.47;;;22.10;99.90;;;;;;5102993;27;20073;-79
2022/08/17 09:20:39;;;;;;;45.67;41.53;;;22.10;99.90;;;;;;5114471;27;20113;-82
2022/08/17 09:23:33;;;;;;;49.40;44.97;;;22.10;99.90;;;;;;5100275;27;20038;-80
2022/08/17 09:26:30;;;;;;;43.85;39.88;;;22.00;99.90;;;;;;5117907;27;20042;-79
2022/08/17 09:29:04;;;;;;;47.55;43.40;;;21.90;99.90;;;;;;5103913;27;20046;-79
2022/08/17 09:31:48;;;;;;;44.88;40.88;;;21.90;99.90;;;;;;5121626;27;20508;-81
2022/08/17 09:34:18;;;;;;;44.22;40.30;;;21.90;99.90;;;;;;5103712;27;20085;-79
2022/08/17 09:37:01;;;;;;;50.90;46.20;;;21.90;99.90;;;;;;5101945;27;20126;-81
2022/08/17 09:39:40;;;;;;;51.20;46.63;;;21.90;99.90;;;;;;5103486;27;20572;-83
2022/08/17 09:42:44;;;;;;;52.28;47.78;;;22.00;99.90;;;;;;5118550;27;20050;-81
2022/08/17 09:45:49;;;;;;;51.92;47.33;;;22.00;99.90;;;;;;5068933;27;20085;-82
2022/08/17 09:48:31;;;;;;;46.30;42.20;;;22.00;99.90;;;;;;5116287;27;20169;-79
2022/08/17 09:51:16;;;;;;;48.42;44.03;;;22.00;99.90;;;;;;5121125;27;20062;-81
2022/08/17 09:53:42;;;;;;;47.75;43.63;;;22.00;99.90;;;;;;5105041;27;20054;-77
2022/08/17 09:56:44;;;;;;;49.13;44.92;;;21.90;99.90;;;;;;5085247;27;21356;-84
2022/08/17 09:59:31;;;;;;;45.97;41.78;;;21.90;99.90;;;;;;5115431;27;20106;-80
2022/08/17 10:02:43;;;;;;;46.60;42.22;;;21.90;99.90;;;;;;5103628;27;20047;-79
2022/08/17 10:05:14;;;;;;;44.72;40.45;;;21.90;99.90;;;;;;5091320;27;20047;-82
2022/08/17 10:08:00;;;;;;;44.45;40.25;;;21.90;99.90;;;;;;5101109;27;20047;-80
2022/08/17 10:10:57;;;;;;;45.65;41.55;;;22.00;99.90;;;;;;5103788;27;20047;-82
2022/08/17 10:13:53;;;;;;;47.22;42.97;;;22.10;99.90;;;;;;5089591;27;20150;-79
2022/08/17 10:16:37;;;;;;;47.28;43.00;;;22.10;99.90;;;;;;5060275;27;20110;-84
2022/08/17 10:19:21;;;;;;;45.72;41.63;;;22.20;99.90;;;;;;5099284;27;20043;-83
2022/08/17 10:27:51;;;;;;;36.05;32.95;;;22.40;99.90;;;;;;5117388;27;20078;-83
2022/08/17 10:30:21;;;;;;;38.40;34.83;;;22.50;99.90;;;;;;5101458;27;20099;-81
2022/08/17 10:32:58;;;;;;;39.30;35.80;;;22.60;99.90;;;;;;5118212;27;20043;-81
2022/08/17 10:35:55;;;;;;;43.55;39.67;;;22.50;99.90;;;;;;5091778;27;20047;-80
2022/08/17 10:38:21;;;;;;;47.22;42.83;;;22.70;99.90;;;;;;5119640;27;20050;-79
2022/08/17 10:40:54;;;;;;;43.08;39.17;;;22.80;99.90;;;;;;5124004;27;20095;-81
2022/08/17 10:43:43;;;;;;;44.85;40.90;;;22.90;99.90;;;;;;5106352;27;20054;-82
2022/08/17 10:46:39;;;;;;;44.80;40.80;;;23.00;99.90;;;;;;5120713;27;20047;-79
2022/08/17 10:49:22;;;;;;;43.90;39.85;;;23.00;99.90;;;;;;5107004;27;20412;-79
2022/08/17 10:52:00;;;;;;;34.92;31.88;;;23.10;99.90;;;;;;5100754;27;20058;-85
2022/08/17 10:54:46;;;;;;;38.55;35.25;;;23.20;99.90;;;;;;5124117;27;20087;-79
2022/08/17 10:57:33;;;;;;;30.63;28.02;;;23.40;99.90;;;;;;5123666;27;20049;-78
2022/08/17 11:00:13;;;;;;;30.67;27.98;;;23.60;99.90;;;;;;5105968;27;20408;-80
2022/08/17 11:02:54;;;;;;;31.58;28.67;;;23.70;99.90;;;;;;5108438;27;20053;-78
2022/08/17 11:05:36;;;;;;;28.13;25.52;;;23.80;99.90;;;;;;5124968;27;20038;-88
2022/08/17 11:08:41;;;;;;;28.42;25.92;;;23.90;99.90;;;;;;5123342;27;20107;-78
2022/08/17 11:11:46;;;;;;;25.10;22.88;;;24.00;99.90;;;;;;5109928;27;20043;-81
2022/08/17 11:14:46;;;;;;;28.25;25.65;;;24.10;99.90;;;;;;5126609;27;20051;-79
2022/08/17 11:17:48;;;;;;;23.83;21.48;;;24.20;99.90;;;;;;5127348;27;20047;-82
2022/08/17 11:20:27;;;;;;;28.15;25.55;;;24.20;99.90;;;;;;5125769;27;20051;-82
2022/08/17 11:23:17;;;;;;;28.80;26.10;;;24.20;99.90;;;;;;5108331;27;20050;-79
2022/08/17 11:25:50;;;;;;;26.05;23.77;;;24.10;99.90;;;;;;5101425;27;20043;-81
2022/08/17 11:28:21;;;;;;;26.27;23.83;;;24.00;99.90;;;;;;5108748;27;20046;-84
2022/08/17 11:31:01;;;;;;;29.50;26.90;;;24.00;99.90;;;;;;5108143;27;20043;-86
2022/08/17 11:33:33;;;;;;;31.23;28.60;;;23.90;99.90;;;;;;5106407;27;20061;-78
2022/08/17 11:36:13;;;;;;;30.50;27.90;;;23.80;99.90;;;;;;5110727;27;20077;-79
2022/08/17 11:38:48;;;;;;;27.77;25.25;;;23.70;99.90;;;;;;5109231;27;20501;-87
2022/08/17 11:41:35;;;;;;;25.30;23.08;;;23.70;99.90;;;;;;5106056;27;20412;-78
2022/08/17 11:44:36;;;;;;;26.75;24.45;;;23.70;99.90;;;;;;5107950;27;20396;-78
2022/08/17 11:53:37;;;;;;;21.65;19.50;;;23.70;99.90;;;;;;5102418;27;20050;-84
2022/08/17 11:56:40;;;;;;;22.60;20.52;;;23.70;99.90;;;;;;5098762;27;20039;-87
2022/08/17 11:59:38;;;;;;;22.08;20.08;;;23.60;99.90;;;;;;5055150;28;20059;-80
2022/08/17 12:02:30;;;;;;;24.33;22.15;;;23.60;99.90;;;;;;5119436;27;20069;-79
2022/08/17 12:05:16;;;;;;;27.45;25.15;;;23.60;99.90;;;;;;5102572;27;20054;-85
2022/08/17 12:07:43;;;;;;;26.42;24.05;;;23.60;99.90;;;;;;5103636;27;20058;-79
2022/08/17 12:10:11;;;;;;;28.08;25.77;;;23.60;99.90;;;;;;5122464;27;20050;-81
2022/08/17 12:12:42;;;;;;;24.95;22.67;;;23.70;99.90;;;;;;5087066;27;20108;-82
2022/08/17 12:15:16;;;;;;;26.58;24.13;;;23.70;99.90;;;;;;5138418;27;20125;-81
2022/08/17 12:17:53;;;;;;;25.17;23.08;;;23.80;99.90;;;;;;5103584;27;20043;-78
2022/08/17 12:20:22;;;;;;;25.27;23.00;;;23.80;99.90;;;;;;5107535;27;20043;-79
2022/08/17 12:23:08;;;;;;;23.95;21.85;;;23.80;99.90;;;;;;5106667;27;20432;-83
2022/08/17 12:25:34;;;;;;;24.92;22.67;;;23.80;99.90;;;;;;5102732;27;20117;-86
2022/08/17 12:28:01;;;;;;;23.15;21.17;;;23.80;99.90;;;;;;5121957;27;20709;-83
2022/08/17 12:30:27;;;;;;;21.52;19.27;;;23.80;99.90;;;;;;5088114;27;20121;-88
2022/08/17 12:32:53;;;;;;;23.75;21.40;;;23.80;99.90;;;;;;5076318;27;20039;-83
2022/08/17 12:35:31;;;;;;;21.15;19.25;;;23.80;99.90;;;;;;5094941;27;20048;-82
2022/08/17 12:38:10;;;;;;;21.45;19.67;;;23.70;99.90;;;;;;5088896;27;20943;-83
2022/08/17 12:40:57;;;;;;;23.05;21.05;;;23.70;99.90;;;;;;5018845;28;20044;-80
2022/08/17 12:47:32;;;;;;;;;;;;;;;;;;;;;
2022/08/17 12:50:23;;;;;;;21.58;19.48;;;23.40;99.90;;;;;;4960623;28;20046;-84
2022/08/17 12:53:31;;;;;;;19.48;17.58;;;23.40;99.90;;;;;;5086761;27;20046;-77
2022/08/17 12:56:06;;;;;;;18.27;16.58;;;23.40;99.90;;;;;;5099701;27;20053;-77
2022/08/17 12:58:52;;;;;;;19.92;17.92;;;23.30;99.90;;;;;;5098044;27;20074;-79
2022/08/17 13:01:18;;;;;;;21.25;19.25;;;23.40;99.90;;;;;;5093670;27;20047;-80
2022/08/17 13:03:48;;;;;;;18.25;16.65;;;23.40;99.90;;;;;;5081616;27;20126;-79
2022/08/17 13:06:30;;;;;;;19.67;17.90;;;23.40;99.90;;;;;;5103591;27;20038;-82
2022/08/17 13:09:11;;;;;;;18.55;16.85;;;23.50;99.90;;;;;;5098651;27;20070;-80
2022/08/17 13:12:03;;;;;;;18.83;16.98;;;23.50;99.90;;;;;;5089578;27;20522;-82
2022/08/17 13:14:29;;;;;;;16.92;15.38;;;23.50;99.90;;;;;;5101898;27;20047;-80
2022/08/17 13:16:58;;;;;;;16.10;14.57;;;23.50;99.90;;;;;;5067130;27;20076;-84
2022/08/17 13:19:28;;;;;;;16.80;15.30;;;23.60;99.90;;;;;;5119275;27;20043;-86
2022/08/17 13:21:57;;;;;;;18.05;16.13;;;23.60;99.90;;;;;;5102355;27;21333;-83
2022/08/17 13:24:28;;;;;;;16.63;15.05;;;23.60;99.90;;;;;;5116570;27;20054;-84
2022/08/17 13:27:06;;;;;;;17.70;16.00;;;23.70;99.90;;;;;;5117323;27;20047;-85
2022/08/17 13:29:56;;;;;;;15.75;14.35;;;23.70;99.90;;;;;;5104273;27;20206;-83
2022/08/17 13:32:33;;;;;;;16.02;14.63;;;23.60;99.90;;;;;;5100142;27;20050;-79
2022/08/17 13:35:03;;;;;;;17.20;15.65;;;23.60;99.90;;;;;;5109835;27;20413;-81
2022/08/17 13:37:32;;;;;;;15.52;14.07;;;23.60;99.90;;;;;;5071528;27;21257;-83
2022/08/17 13:40:01;;;;;;;16.13;14.63;;;23.50;99.90;;;;;;5101992;27;20748;-80
2022/08/17 13:42:32;;;;;;;21.58;19.58;;;23.50;99.90;;;;;;5099779;27;20075;-78
2022/08/17 13:44:59;;;;;;;21.17;19.20;;;23.50;99.90;;;;;;5120271;27;20034;-79